Terminal Aerodrome Forecast
Issued by NWS

Home | Current Version | Previous Version | Text Only | Print | Product List | Glossary On
Versions: 1 2 3 4 5 6 7 8 9 10 11 12 13 14 15 16 17 18 19 20
338
FTUS43 KILX 291742
TAFDEC
TAF
KDEC 291742Z 2918/3018 26007KT P6SM SCT025 BKN050
      TEMPO 2918/2920 BKN025
     FM292000 28006KT P6SM VCSH SCT025 BKN040
     FM300200 VRB03KT P6SM BKN035
     FM301000 VRB03KT 4SM BR SCT005
     FM301400 28006KT P6SM SCT015 BKN025=

USA.gov is the U.S. government's official web portal to all federal, state and local government web resources and services.